createdAt,value
2024-01-05T00:02:56.166Z,99910.28
2024-01-05T00:05:57.933Z,99942.41
2024-01-05T00:08:59.750Z,99939.16
2024-01-05T00:12:03.286Z,99940.25
2024-01-05T00:15:06.783Z,99934.19
2024-01-05T00:18:08.516Z,99932.00
2024-01-05T00:21:10.186Z,99956.91
2024-01-05T00:24:12.084Z,99958.31
2024-01-05T00:27:13.719Z,99957.22
2024-01-05T00:30:15.426Z,99966.31
2024-01-05T00:33:17.310Z,99961.78
2024-01-05T00:36:19.056Z,99976.22
2024-01-05T00:39:20.703Z,99984.69
2024-01-05T00:42:22.511Z,99968.13
2024-01-05T00:45:24.264Z,99971.34
2024-01-05T00:48:26.225Z,99979.22
2024-01-05T00:51:28.065Z,99987.69
2024-01-05T00:54:29.804Z,99989.22
2024-01-05T00:57:32.742Z,99986.06
2024-01-05T01:00:34.582Z,99990.69
2024-01-05T01:03:36.428Z,100016.50
2024-01-05T01:06:38.357Z,100002.59
2024-01-05T01:09:40.077Z,100010.94
2024-01-05T01:12:41.772Z,99997.72
2024-01-05T01:15:43.411Z,100003.66
2024-01-05T01:18:45.238Z,99991.19
2024-01-05T01:21:46.931Z,100003.34
2024-01-05T01:24:49.290Z,100003.19
2024-01-05T01:27:51.233Z,99968.50
2024-01-05T01:30:53.092Z,99968.44
2024-01-05T01:33:54.780Z,100001.88
2024-01-05T01:36:56.406Z,100002.72
2024-01-05T01:39:57.908Z,99998.50
2024-01-05T01:42:59.754Z,99975.06
2024-01-05T01:46:02.150Z,99981.78
2024-01-05T01:49:05.903Z,99963.69
2024-01-05T01:52:08.306Z,99960.56
2024-01-05T01:55:10.904Z,99973.72
2024-01-05T01:58:14.162Z,99969.63
2024-01-05T02:01:16.010Z,99977.81
2024-01-05T02:04:20.706Z,99989.75
2024-01-05T02:07:22.938Z,99991.84
2024-01-05T02:10:24.919Z,99985.66
2024-01-05T02:13:26.682Z,99987.66
2024-01-05T02:16:28.278Z,99991.69
2024-01-05T02:19:30.005Z,100011.81
2024-01-05T02:22:34.171Z,99971.47
2024-01-05T02:25:35.973Z,99992.91
2024-01-05T02:28:38.392Z,100005.50
2024-01-05T02:31:40.079Z,100006.56
2024-01-05T02:34:41.757Z,100003.03
2024-01-05T02:37:44.619Z,100004.00
2024-01-05T02:40:46.449Z,100001.66
2024-01-05T02:43:48.068Z,100008.13
2024-01-05T02:46:49.748Z,99992.91
2024-01-05T02:49:51.549Z,100003.28
2024-01-05T02:52:53.182Z,100006.94
2024-01-05T02:55:54.833Z,99996.06
2024-01-05T02:58:56.470Z,99991.56
2024-01-05T03:01:57.992Z,99991.03
2024-01-05T03:05:00.273Z,99988.56
2024-01-05T03:08:02.005Z,99980.94
2024-01-05T03:11:03.546Z,99978.66
2024-01-05T03:14:05.275Z,99980.09
2024-01-05T03:17:07.116Z,99993.34
2024-01-05T03:20:10.632Z,99985.22
2024-01-05T03:23:12.324Z,100001.47
2024-01-05T03:26:13.835Z,100005.31
2024-01-05T03:29:15.634Z,99988.41
2024-01-05T03:32:17.329Z,99991.72
2024-01-05T03:35:18.878Z,99997.69
2024-01-05T03:38:20.539Z,99977.16
2024-01-05T03:41:22.178Z,99991.03
2024-01-05T03:44:23.645Z,100000.75
2024-01-05T03:47:25.304Z,99987.41
2024-01-05T03:50:26.928Z,99999.16
2024-01-05T03:53:28.553Z,100002.47
2024-01-05T03:56:38.241Z,99993.22
2024-01-05T03:59:43.693Z,100016.06
2024-01-05T04:02:45.372Z,100012.84
2024-01-05T04:05:47.228Z,100016.50
2024-01-05T04:08:48.844Z,100001.78
2024-01-05T04:11:50.589Z,100015.78
2024-01-05T04:14:52.299Z,100015.47
2024-01-05T04:17:55.084Z,100010.78
2024-01-05T04:20:56.852Z,100019.63
2024-01-05T04:23:58.572Z,100018.91
2024-01-05T04:27:00.293Z,100020.00
2024-01-05T04:30:02.340Z,100010.09
2024-01-05T04:33:04.537Z,100011.88
2024-01-05T04:36:06.754Z,100009.97
2024-01-05T04:39:09.161Z,100010.44
2024-01-05T04:42:13.928Z,100023.56
2024-01-05T04:45:17.992Z,100022.03
2024-01-05T04:48:19.932Z,100017.34
2024-01-05T04:51:22.243Z,100004.16
2024-01-05T04:54:23.947Z,100012.28
2024-01-05T04:57:25.544Z,100019.50
2024-01-05T05:00:27.377Z,100006.72
2024-01-05T05:03:31.394Z,100009.31
2024-01-05T05:06:33.272Z,100022.91
2024-01-05T05:09:35.034Z,100012.13
2024-01-05T05:12:36.710Z,100014.09
2024-01-05T05:15:38.935Z,100020.97
2024-01-05T05:18:40.897Z,100013.28
2024-01-05T05:21:42.832Z,99999.59
2024-01-05T05:24:45.221Z,100033.84
2024-01-05T05:27:46.949Z,100040.94
2024-01-05T05:30:48.528Z,100049.59
2024-01-05T05:33:50.601Z,100049.75
2024-01-05T05:36:52.337Z,100045.66
2024-01-05T05:39:53.909Z,100043.94
2024-01-05T05:42:56.383Z,100032.53
2024-01-05T05:45:58.107Z,100034.59
2024-01-05T05:48:59.865Z,100039.53
2024-01-05T05:52:01.763Z,100043.09
2024-01-05T05:55:03.447Z,100043.94
2024-01-05T05:58:06.356Z,100063.66
2024-01-05T06:01:08.211Z,100066.63
2024-01-05T06:04:09.832Z,100076.00
2024-01-05T06:07:11.555Z,100069.31
2024-01-05T06:10:13.224Z,100049.81
2024-01-05T06:13:14.812Z,100054.53
2024-01-05T06:16:16.538Z,100053.63
2024-01-05T06:19:20.285Z,100066.53
2024-01-05T06:22:22.029Z,100070.66
2024-01-05T06:25:23.556Z,100075.34
2024-01-05T06:28:27.896Z,100083.34
2024-01-05T06:31:29.836Z,100081.13
2024-01-05T06:34:31.606Z,100083.63
2024-01-05T06:37:33.602Z,100064.19
2024-01-05T06:40:35.191Z,100086.78
2024-01-05T06:43:36.804Z,100069.31
2024-01-05T06:46:38.450Z,100054.19
2024-01-05T06:49:40.416Z,100054.63
2024-01-05T06:52:42.341Z,100036.16
2024-01-05T06:55:44.015Z,100048.78
2024-01-05T06:58:45.747Z,100056.59
2024-01-05T07:01:47.416Z,100036.97
2024-01-05T07:04:49.139Z,100044.41
2024-01-05T07:07:50.973Z,100056.31
2024-01-05T07:10:52.720Z,100054.53
2024-01-05T07:13:54.208Z,100046.72
2024-01-05T07:16:57.310Z,100033.06
2024-01-05T07:19:59.019Z,100029.91
2024-01-05T07:23:00.706Z,100038.34
2024-01-05T07:26:02.404Z,100046.56
2024-01-05T07:29:04.044Z,100046.63
2024-01-05T07:32:06.067Z,100042.53
2024-01-05T07:35:08.071Z,100027.84
2024-01-05T07:38:09.970Z,100033.97
2024-01-05T07:41:17.724Z,100007.09
2024-01-05T07:44:19.465Z,100035.72
2024-01-05T07:47:20.955Z,100031.53
2024-01-05T07:50:22.560Z,100044.00
2024-01-05T07:53:24.127Z,100040.84
2024-01-05T07:56:25.786Z,100035.81
2024-01-05T07:59:27.312Z,100046.94
2024-01-05T08:02:30.142Z,100051.53
2024-01-05T08:05:31.764Z,100037.88
2024-01-05T08:08:33.276Z,100049.34
2024-01-05T08:11:34.935Z,100045.41
2024-01-05T08:14:36.775Z,100046.63
2024-01-05T08:17:38.572Z,100046.03
2024-01-05T08:20:40.173Z,100058.56
2024-01-05T08:23:42.796Z,100067.59
2024-01-05T08:26:45.692Z,100059.38
2024-01-05T08:29:47.324Z,100069.84
2024-01-05T08:32:53.295Z,100079.38
2024-01-05T08:35:57.749Z,100071.50
2024-01-05T08:38:59.453Z,100069.28
2024-01-05T08:42:01.066Z,100075.13
2024-01-05T08:45:02.829Z,100072.69
2024-01-05T08:48:06.327Z,100077.09
2024-01-05T08:51:08.082Z,100073.84
2024-01-05T08:54:11.083Z,100062.38
2024-01-05T08:57:12.898Z,100077.31
2024-01-05T09:00:14.815Z,100075.53
2024-01-05T09:03:16.572Z,100072.38
2024-01-05T09:06:18.272Z,100080.63
2024-01-05T09:09:19.940Z,100081.50
2024-01-05T09:12:21.559Z,100076.28
2024-01-05T09:15:24.359Z,100065.34
2024-01-05T09:18:26.290Z,100071.97
2024-01-05T09:21:28.271Z,100062.16
2024-01-05T09:24:30.506Z,100071.81
2024-01-05T09:27:32.271Z,100072.03
2024-01-05T09:30:34.028Z,100088.03
2024-01-05T09:33:35.814Z,100073.03
2024-01-05T09:36:43.719Z,100064.59
2024-01-05T09:39:46.402Z,100065.06
2024-01-05T09:42:51.709Z,100047.66
2024-01-05T09:45:54.443Z,100030.75
2024-01-05T09:49:04.710Z,100033.19
2024-01-05T09:52:07.390Z,100026.53
2024-01-05T09:55:09.634Z,100023.25
2024-01-05T09:58:12.888Z,100013.31
2024-01-05T10:01:22.776Z,100014.53
2024-01-05T10:04:24.663Z,100005.25
2024-01-05T10:07:26.310Z,100011.34
2024-01-05T10:10:50.990Z,100018.09
2024-01-05T10:13:57.694Z,100004.88
2024-01-05T10:17:12.583Z,99997.63
2024-01-05T10:20:18.837Z,100002.25
2024-01-05T10:23:20.678Z,99986.84
2024-01-05T10:26:22.328Z,100002.47
2024-01-05T10:29:25.840Z,99998.72
2024-01-05T10:32:27.594Z,99981.28
2024-01-05T10:35:30.483Z,99980.34
2024-01-05T10:38:33.639Z,99979.44
2024-01-05T10:41:35.732Z,99977.53
2024-01-05T10:44:37.507Z,99981.53
2024-01-05T10:47:39.717Z,99974.34
2024-01-05T10:50:45.157Z,99955.19
2024-01-05T10:53:48.479Z,99950.94
2024-01-05T10:56:55.805Z,99950.13
2024-01-05T10:59:57.716Z,99954.56
2024-01-05T11:03:19.313Z,99946.09
2024-01-05T11:06:21.609Z,99959.22
2024-01-05T11:10:04.531Z,99953.91
2024-01-05T11:13:41.845Z,99951.47
2024-01-05T11:16:56.249Z,99951.72
2024-01-05T11:20:18.126Z,99940.38
2024-01-05T11:23:21.744Z,99926.56
2024-01-05T11:26:33.630Z,99936.78
2024-01-05T11:29:49.746Z,99921.81
2024-01-05T11:32:51.498Z,99911.84
2024-01-05T11:35:53.519Z,99920.03
2024-01-05T11:38:55.179Z,99901.47
2024-01-05T11:41:57.022Z,99918.91
2024-01-05T11:45:01.004Z,99918.47
2024-01-05T11:48:02.851Z,99919.75
2024-01-05T11:51:04.533Z,99921.53
2024-01-05T11:54:06.261Z,99919.47
2024-01-05T11:57:09.222Z,99911.00
2024-01-05T12:00:14.225Z,99921.41
2024-01-05T12:03:16.966Z,99920.28
2024-01-05T12:06:19.157Z,99902.81
2024-01-05T12:09:23.892Z,99922.31
2024-01-05T12:12:27.179Z,99921.38
2024-01-05T12:15:29.313Z,99919.31
2024-01-05T12:18:38.083Z,99918.50
2024-01-05T12:21:41.244Z,99908.09
2024-01-05T12:24:43.041Z,99904.91
2024-01-05T12:27:44.819Z,99888.03
2024-01-05T12:30:46.672Z,99880.78
2024-01-05T12:33:48.954Z,99889.59
2024-01-05T12:36:50.796Z,99889.19
2024-01-05T12:39:52.706Z,99890.78
2024-01-05T12:42:55.346Z,99877.13
2024-01-05T12:45:56.953Z,99874.78
2024-01-05T12:48:59.972Z,99869.16
2024-01-05T12:52:01.772Z,99861.53
2024-01-05T12:55:06.726Z,99842.47
2024-01-05T12:58:08.376Z,99858.91
2024-01-05T13:01:20.656Z,99855.81
2024-01-05T13:04:37.813Z,99856.88
2024-01-05T13:07:42.517Z,99837.69
2024-01-05T13:10:44.222Z,99854.97
2024-01-05T13:13:46.541Z,99847.75
2024-01-05T13:16:48.288Z,99858.69
2024-01-05T13:19:50.200Z,99860.06
2024-01-05T13:22:53.805Z,99843.34
2024-01-05T13:25:56.612Z,99849.13
2024-01-05T13:28:58.209Z,99845.94
2024-01-05T13:31:59.922Z,99843.19
2024-01-05T13:35:01.695Z,99857.25
2024-01-05T13:38:04.927Z,99856.41
2024-01-05T13:41:07.272Z,99839.28
2024-01-05T13:44:09.444Z,99842.88
2024-01-05T13:47:11.024Z,99824.47
2024-01-05T13:50:12.869Z,99826.03
2024-01-05T13:53:15.478Z,99826.59
2024-01-05T13:56:19.266Z,99827.69
2024-01-05T13:59:20.949Z,99828.25
2024-01-05T14:02:22.682Z,99827.16
2024-01-05T14:05:24.348Z,99819.41
2024-01-05T14:08:26.012Z,99804.34
2024-01-05T14:11:27.784Z,99816.13
2024-01-05T14:14:29.437Z,99817.78
2024-01-05T14:17:31.068Z,99806.84
2024-01-05T14:20:32.727Z,99819.44
2024-01-05T14:23:36.889Z,99810.03
2024-01-05T14:26:39.756Z,99812.66
2024-01-05T14:29:42.218Z,99818.31
2024-01-05T14:32:43.941Z,99813.63
2024-01-05T14:35:46.562Z,99822.34
2024-01-05T14:38:48.435Z,99811.97
2024-01-05T14:41:50.038Z,99818.88
2024-01-05T14:44:51.919Z,99816.09
2024-01-05T14:47:57.728Z,99830.78
2024-01-05T14:50:59.483Z,99841.28
2024-01-05T14:54:01.232Z,99821.34
2024-01-05T14:57:03.218Z,99832.41
2024-01-05T15:00:06.095Z,99834.78
2024-01-05T15:03:07.792Z,99838.09
2024-01-05T15:06:10.809Z,99835.59
2024-01-05T15:09:13.381Z,99831.16
2024-01-05T15:12:15.161Z,99829.25
2024-01-05T15:15:16.849Z,99826.34
2024-01-05T15:18:20.421Z,99846.94
2024-01-05T15:21:26.680Z,99843.75
2024-01-05T15:24:28.642Z,99830.50
2024-01-05T15:27:30.382Z,99840.75
2024-01-05T15:30:32.168Z,99842.38
2024-01-05T15:33:33.870Z,99832.44
2024-01-05T15:36:35.575Z,99847.09
2024-01-05T15:39:40.744Z,99833.00
2024-01-05T15:42:42.408Z,99826.22
2024-01-05T15:45:44.109Z,99837.00
2024-01-05T15:48:45.850Z,99832.03
2024-01-05T15:51:49.864Z,99821.38
2024-01-05T15:54:51.777Z,99820.00
2024-01-05T15:57:53.772Z,99806.84
2024-01-05T16:00:55.626Z,99808.66
2024-01-05T16:03:57.514Z,99808.66
2024-01-05T16:06:59.307Z,99824.00
2024-01-05T16:10:01.030Z,99823.88
2024-01-05T16:13:02.632Z,99812.94
2024-01-05T16:16:17.680Z,99816.38
2024-01-05T16:19:21.286Z,99810.97
2024-01-05T16:22:22.932Z,99809.75
2024-01-05T16:25:24.598Z,99825.22
2024-01-05T16:28:26.389Z,99823.97
2024-01-05T16:31:28.203Z,99814.41
2024-01-05T16:34:31.363Z,99811.09
2024-01-05T16:37:33.000Z,99824.38
2024-01-05T16:40:35.458Z,99811.34
2024-01-05T16:43:38.376Z,99823.22
2024-01-05T16:46:40.175Z,99829.72
2024-01-05T16:49:41.914Z,99817.44
2024-01-05T16:52:43.824Z,99837.78
2024-01-05T16:55:45.475Z,99825.16
2024-01-05T16:58:47.027Z,99808.00
2024-01-05T17:01:48.705Z,99823.66
2024-01-05T17:04:50.699Z,99827.66
2024-01-05T17:07:52.384Z,99810.22
2024-01-05T17:10:54.021Z,99795.09
2024-01-05T17:13:57.794Z,99809.88
2024-01-05T17:16:59.615Z,99800.09
2024-01-05T17:20:16.481Z,99810.47
2024-01-05T17:23:23.589Z,99828.41
2024-01-05T17:26:27.086Z,99820.13
2024-01-05T17:29:28.774Z,99816.38
2024-01-05T17:32:30.318Z,99827.41
2024-01-05T17:35:31.964Z,99820.97
2024-01-05T17:38:33.541Z,99808.16
2024-01-05T17:41:35.932Z,99806.22
2024-01-05T17:44:41.428Z,99802.91
2024-01-05T17:47:44.959Z,99807.25
2024-01-05T17:50:46.663Z,99810.06
2024-01-05T17:53:49.628Z,99809.50
2024-01-05T17:56:52.961Z,99818.22
2024-01-05T17:59:54.632Z,99816.16
2024-01-05T18:02:56.292Z,99813.97
2024-01-05T18:05:57.957Z,99819.47
2024-01-05T18:09:01.556Z,99815.44
2024-01-05T18:12:03.553Z,99816.84
2024-01-05T18:15:06.001Z,99828.56
2024-01-05T18:18:08.504Z,99819.81
2024-01-05T18:21:10.373Z,99825.59
2024-01-05T18:24:13.076Z,99831.81
2024-01-05T18:27:15.041Z,99831.09
2024-01-05T18:30:17.113Z,99800.44
2024-01-05T18:33:19.016Z,99825.41
2024-01-05T18:36:21.168Z,99797.63
2024-01-05T18:39:23.186Z,99807.19
2024-01-05T18:42:25.059Z,99803.19
2024-01-05T18:45:26.834Z,99805.97
2024-01-05T18:48:28.740Z,99811.06
2024-01-05T18:51:30.457Z,99814.94
2024-01-05T18:54:32.145Z,99812.72
2024-01-05T18:57:33.839Z,99805.44
2024-01-05T19:00:35.685Z,99813.16
2024-01-05T19:03:37.446Z,99813.44
2024-01-05T19:06:41.659Z,99815.13
2024-01-05T19:09:43.437Z,99801.16
2024-01-05T19:12:45.162Z,99789.63
2024-01-05T19:15:47.048Z,99808.06
2024-01-05T19:18:48.946Z,99783.44
2024-01-05T19:21:56.365Z,99783.28
2024-01-05T19:24:59.480Z,99799.72
2024-01-05T19:28:01.101Z,99789.50
2024-01-05T19:31:03.267Z,99796.69
2024-01-05T19:34:05.056Z,99803.72
2024-01-05T19:37:06.778Z,99799.56
2024-01-05T19:40:11.804Z,99775.19
2024-01-05T19:43:15.646Z,99792.56
2024-01-05T19:46:18.251Z,99784.63
2024-01-05T19:49:20.215Z,99783.81
2024-01-05T19:52:22.052Z,99772.13
2024-01-05T19:55:23.671Z,99768.63
2024-01-05T19:58:25.264Z,99774.03
2024-01-05T20:01:27.805Z,99771.94
2024-01-05T20:04:32.367Z,99745.25
2024-01-05T20:07:34.101Z,99751.44
2024-01-05T20:10:35.690Z,99750.13
2024-01-05T20:13:37.233Z,99757.69
2024-01-05T20:16:39.093Z,99740.47
2024-01-05T20:19:42.640Z,99721.28
2024-01-05T20:22:45.157Z,99738.00
2024-01-05T20:25:46.739Z,99729.06
2024-01-05T20:28:49.007Z,99744.84
2024-01-05T20:31:52.346Z,99734.78
2024-01-05T20:34:54.134Z,99732.47
2024-01-05T20:37:55.928Z,99724.59
2024-01-05T20:40:57.591Z,99715.06
2024-01-05T20:43:59.376Z,99725.16
2024-01-05T20:47:01.302Z,99707.75
2024-01-05T20:50:04.500Z,99704.88
2024-01-05T20:53:11.707Z,99692.41
2024-01-05T20:56:14.457Z,99708.31
2024-01-05T20:59:16.108Z,99716.50
2024-01-05T21:02:17.785Z,99702.97
2024-01-05T21:05:19.426Z,99703.78
2024-01-05T21:08:27.225Z,99700.63
2024-01-05T21:11:28.850Z,99702.41
2024-01-05T21:14:34.584Z,99711.09
2024-01-05T21:17:36.273Z,99690.63
2024-01-05T21:20:38.030Z,99685.75
2024-01-05T21:23:41.024Z,99693.47
2024-01-05T21:26:45.309Z,99697.47
2024-01-05T21:29:47.262Z,99690.53
2024-01-05T21:32:49.135Z,99694.13
2024-01-05T21:35:50.810Z,99708.06
2024-01-05T21:38:52.916Z,99703.19
2024-01-05T21:41:54.635Z,99685.56
2024-01-05T21:44:58.233Z,99694.41
2024-01-05T21:48:00.579Z,99696.31
2024-01-05T21:51:02.262Z,99685.34
2024-01-05T21:54:04.506Z,99687.25
2024-01-05T21:57:06.364Z,99684.59
2024-01-05T22:00:08.676Z,99666.56
2024-01-05T22:03:10.551Z,99686.44
2024-01-05T22:06:14.683Z,99693.28
2024-01-05T22:09:17.486Z,99671.59
2024-01-05T22:12:19.293Z,99667.56
2024-01-05T22:15:21.099Z,99671.00
2024-01-05T22:18:23.035Z,99675.19
2024-01-05T22:21:24.905Z,99661.34
2024-01-05T22:24:27.155Z,99678.00
2024-01-05T22:27:28.905Z,99669.56
2024-01-05T22:30:30.599Z,99662.00
2024-01-05T22:33:33.000Z,99664.78
2024-01-05T22:36:34.687Z,99643.63
2024-01-05T22:39:38.937Z,99642.31
2024-01-05T22:42:41.844Z,99647.16
2024-01-05T22:45:43.597Z,99638.84
2024-01-05T22:48:47.437Z,99652.50
2024-01-05T22:51:49.488Z,99646.31
2024-01-05T22:54:52.557Z,99644.78
2024-01-05T22:57:55.362Z,99632.44
2024-01-05T23:00:57.036Z,99632.59
2024-01-05T23:04:00.714Z,99621.09
2024-01-05T23:07:02.474Z,99625.94
2024-01-05T23:10:04.641Z,99610.03
2024-01-05T23:13:06.329Z,99617.50
2024-01-05T23:16:08.739Z,99618.47
2024-01-05T23:19:10.569Z,99618.09
2024-01-05T23:22:12.308Z,99604.16
2024-01-05T23:25:14.526Z,99611.75
2024-01-05T23:28:16.824Z,99607.38
2024-01-05T23:31:18.720Z,99614.63
2024-01-05T23:34:21.364Z,99598.13
2024-01-05T23:37:23.245Z,99595.06
2024-01-05T23:40:24.913Z,99587.47
2024-01-05T23:43:26.402Z,99596.97
2024-01-05T23:46:28.122Z,99587.59
2024-01-05T23:49:30.577Z,99604.84
2024-01-05T23:52:33.753Z,99599.16
2024-01-05T23:55:35.434Z,99592.75
2024-01-05T23:58:37.092Z,99579.97
